Time;durP1;ratioP1;P1;durP2;ratioP2;P2;SDS_P1;SDS_P2;PMS_P1;PMS_P2;Temp;Humidity;BMP_temperature;BMP_pressure;BME280_temperature;BME280_humidity;BME280_pressure;Samples;Min_cycle;Max_cycle;Signal;HPM_P1;HPM_P2
2023/12/07 00:01:18;;;;;;;44.80;22.30;;;;;;;5.39;88.24;94881.91;5131134;28;20031;-80
2023/12/07 00:03:43;;;;;;;52.40;22.52;;;;;;;5.42;87.98;94867.44;5106643;28;20112;-80
2023/12/07 00:06:09;;;;;;;52.22;22.83;;;;;;;5.51;87.81;94880.94;5117828;28;20031;-80
2023/12/07 00:08:35;;;;;;;52.80;23.90;;;;;;;5.41;88.30;94869.31;5113529;28;20121;-81
2023/12/07 00:11:00;;;;;;;54.83;24.77;;;;;;;5.21;87.77;94823.59;5130923;28;20266;-80
2023/12/07 00:13:26;;;;;;;55.00;24.70;;;;;;;5.26;87.88;94842.88;5112334;28;20024;-80
2023/12/07 00:15:51;;;;;;;49.83;23.88;;;;;;;5.61;87.64;94888.94;5106427;28;20023;-80
2023/12/07 00:18:17;;;;;;;49.72;24.65;;;;;;;5.44;87.45;94857.47;5091112;28;20046;-80
2023/12/07 00:20:42;;;;;;;48.78;24.40;;;;;;;5.52;87.79;94872.81;5117824;28;20053;-80
2023/12/07 00:23:08;;;;;;;49.42;25.83;;;;;;;5.54;87.62;94870.72;5118558;28;20074;-80
2023/12/07 00:25:34;;;;;;;52.85;25.40;;;;;;;5.21;87.46;94819.13;5123732;28;20102;-80
2023/12/07 00:27:59;;;;;;;48.05;25.23;;;;;;;5.71;87.45;94889.84;5104567;28;20413;-80
2023/12/07 00:30:25;;;;;;;53.08;25.90;;;;;;;5.61;86.69;94889.75;5122848;28;20027;-79
2023/12/07 00:32:50;;;;;;;48.60;24.77;;;;;;;5.53;86.76;94892.03;5104147;28;20028;-80
2023/12/07 00:35:17;;;;;;;49.95;24.50;;;;;;;5.39;87.13;94866.13;5104174;28;20031;-80
2023/12/07 00:37:43;;;;;;;48.58;24.52;;;;;;;5.53;87.41;94877.03;5104649;28;20051;-80
2023/12/07 00:40:09;;;;;;;45.92;22.98;;;;;;;5.51;87.50;94875.69;5104732;28;20035;-80
2023/12/07 00:42:34;;;;;;;49.65;21.92;;;;;;;5.57;86.53;94893.88;5096185;28;20135;-79
2023/12/07 00:45:00;;;;;;;44.03;22.40;;;;;;;5.41;87.18;94855.38;5117743;28;20518;-80
2023/12/07 00:47:26;;;;;;;43.67;20.85;;;;;;;5.49;86.49;94864.63;5084079;28;20032;-80
2023/12/07 00:49:51;;;;;;;43.28;21.98;;;;;;;5.39;87.25;94847.72;5118527;28;20123;-80
2023/12/07 00:52:17;;;;;;;42.97;22.20;;;;;;;5.57;86.54;94874.72;5117859;28;20052;-80
2023/12/07 00:54:42;;;;;;;43.58;21.30;;;;;;;5.41;86.70;94852.72;5115150;28;20042;-78
2023/12/07 00:57:08;;;;;;;41.75;20.42;;;;;;;5.54;87.09;94854.16;5108301;28;20028;-79
2023/12/07 00:59:33;;;;;;;45.78;20.83;;;;;;;5.56;87.13;94876.53;5074358;28;20028;-78
2023/12/07 01:02:06;;;;;;;51.20;23.17;;;;;;;5.46;86.66;94851.97;5107960;28;20414;-78
2023/12/07 01:04:32;;;;;;;51.08;20.55;;;;;;;5.65;86.70;94887.38;5109653;28;20032;-78
2023/12/07 01:06:58;;;;;;;47.30;21.05;;;;;;;5.68;86.70;94882.44;5090773;28;20177;-78
2023/12/07 01:09:24;;;;;;;38.97;21.33;;;;;;;5.70;87.24;94879.56;5096903;28;20035;-78
2023/12/07 01:11:50;;;;;;;49.58;21.30;;;;;;;5.38;86.96;94826.91;5094489;28;20050;-78
2023/12/07 01:14:16;;;;;;;41.97;21.52;;;;;;;5.48;86.69;94842.00;5094116;28;20067;-78
2023/12/07 01:16:42;;;;;;;41.05;21.35;;;;;;;5.68;87.07;94879.00;5094751;28;20028;-79
2023/12/07 01:19:08;;;;;;;43.00;19.75;;;;;;;5.26;87.00;94824.47;5094133;28;20506;-78
2023/12/07 01:21:33;;;;;;;39.88;19.65;;;;;;;5.63;87.60;94873.72;5082681;28;20075;-78
2023/12/07 01:23:59;;;;;;;40.33;20.42;;;;;;;5.42;87.52;94843.78;5093888;28;20070;-79
2023/12/07 01:26:25;;;;;;;47.53;21.05;;;;;;;5.39;87.49;94844.28;5095257;28;20043;-80
2023/12/07 01:28:50;;;;;;;42.17;19.75;;;;;;;5.48;87.54;94847.25;5127885;28;20046;-80
2023/12/07 01:31:17;;;;;;;43.13;21.35;;;;;;;5.25;87.56;94806.28;5116043;28;20031;-80
2023/12/07 01:33:45;;;;;;;37.22;18.80;;;;;;;5.72;87.87;94874.84;5133482;28;20083;-80
2023/12/07 01:36:11;;;;;;;41.05;21.27;;;;;;;5.69;87.03;94876.13;5114839;28;20031;-80
2023/12/07 01:38:37;;;;;;;44.60;20.58;;;;;;;5.30;87.71;94808.97;5114861;28;20032;-80
2023/12/07 01:41:02;;;;;;;43.50;20.50;;;;;;;5.73;87.91;94860.63;5114767;28;20050;-80
2023/12/07 01:43:28;;;;;;;45.08;20.80;;;;;;;5.42;87.65;94815.63;5115231;28;20032;-80
2023/12/07 01:45:56;;;;;;;51.05;22.35;;;;;;;5.74;87.79;94870.09;5132676;28;20122;-80
2023/12/07 01:48:24;;;;;;;51.35;23.83;;;;;;;5.72;88.03;94872.22;5133541;28;20038;-80
2023/12/07 01:50:51;;;;;;;45.50;20.55;;;;;;;5.41;87.50;94827.22;5138079;28;20036;-80
2023/12/07 01:53:17;;;;;;;44.47;20.38;;;;;;;5.44;87.79;94866.16;5106619;28;20107;-80
2023/12/07 01:55:43;;;;;;;44.65;21.30;;;;;;;5.18;88.53;94822.28;5105900;28;20024;-80
2023/12/07 01:58:09;;;;;;;36.88;18.33;;;;;;;5.41;88.50;94848.25;5096381;28;20024;-80
2023/12/07 02:00:35;;;;;;;47.65;20.48;;;;;;;5.18;88.74;94835.41;5078762;28;20027;-80
2023/12/07 02:03:04;;;;;;;45.90;20.95;;;;;;;5.44;88.80;94863.53;5095978;28;20033;-80
2023/12/07 02:05:31;;;;;;;45.13;20.35;;;;;;;5.21;88.82;94826.22;5095767;28;20024;-80
2023/12/07 02:07:58;;;;;;;57.40;23.17;;;;;;;5.42;89.20;94862.97;5113435;28;20032;-80
2023/12/07 02:10:24;;;;;;;49.85;22.60;;;;;;;5.52;89.38;94864.91;5095015;28;20090;-80
2023/12/07 02:12:52;;;;;;;47.95;22.38;;;;;;;5.52;88.84;94864.91;5095300;28;20032;-80
2023/12/07 02:15:19;;;;;;;45.80;23.45;;;;;;;5.44;88.96;94863.53;5081855;28;20066;-80
2023/12/07 02:17:47;;;;;;;58.38;24.65;;;;;;;5.39;89.45;94858.22;5115159;28;20046;-80
2023/12/07 02:20:22;;;;;;;51.05;24.25;;;;;;;5.41;89.25;94842.22;5097293;28;20012;-80
2023/12/07 02:23:02;;;;;;;52.28;24.92;;;;;;;5.46;89.48;94846.72;5088538;28;20050;-80
2023/12/07 02:28:52;;;;;;;51.67;23.67;;;;;;;5.21;88.71;94807.81;5083334;28;20077;-80
2023/12/07 02:31:17;;;;;;;54.90;23.48;;;;;;;5.37;89.13;94833.22;5094703;28;20016;-80
2023/12/07 02:33:43;;;;;;;53.67;23.25;;;;;;;5.38;88.56;94825.09;5093893;28;20086;-80
2023/12/07 02:36:08;;;;;;;51.10;23.38;;;;;;;5.29;88.74;94818.69;5100583;28;20043;-80
2023/12/07 02:38:36;;;;;;;56.05;26.27;;;;;;;5.51;88.79;94838.84;5114342;28;20028;-80
2023/12/07 02:41:02;;;;;;;54.00;24.00;;;;;;;5.41;88.66;94821.19;5097043;28;20024;-80
2023/12/07 02:43:28;;;;;;;53.28;24.25;;;;;;;5.61;88.68;94852.09;5097643;28;20062;-80
2023/12/07 02:45:54;;;;;;;52.15;25.20;;;;;;;5.42;88.65;94841.16;5080515;28;20107;-80
2023/12/07 02:48:21;;;;;;;55.00;24.67;;;;;;;5.11;88.68;94784.09;5097371;28;20024;-80
2023/12/07 02:50:47;;;;;;;49.75;22.23;;;;;;;4.90;89.55;94764.66;5101451;28;20048;-80
2023/12/07 02:53:12;;;;;;;53.05;22.90;;;;;;;5.48;89.12;94842.00;5096493;28;20047;-80
2023/12/07 02:55:38;;;;;;;46.33;22.90;;;;;;;5.38;88.74;94840.88;5128071;28;20055;-80
2023/12/07 02:58:04;;;;;;;53.83;22.33;;;;;;;5.32;89.53;94849.75;5100151;28;20470;-80
2023/12/07 03:00:29;;;;;;;45.78;21.65;;;;;;;5.14;89.69;94831.69;5096535;28;20020;-80
2023/12/07 03:02:55;;;;;;;41.97;20.98;;;;;;;5.33;89.27;94848.72;5130478;28;20024;-80
2023/12/07 03:05:22;;;;;;;40.78;19.92;;;;;;;5.35;89.37;94837.91;5134803;28;20083;-80
2023/12/07 03:07:48;;;;;;;42.95;20.15;;;;;;;5.51;88.56;94852.81;5131227;28;20039;-80
2023/12/07 03:10:14;;;;;;;37.40;17.25;;;;;;;5.24;88.82;94828.38;5117603;28;20031;-80
2023/12/07 03:12:39;;;;;;;38.58;17.50;;;;;;;4.91;87.95;94789.91;5134566;28;20036;-80
2023/12/07 03:15:05;;;;;;;32.50;16.30;;;;;;;5.21;88.75;94840.16;5120553;22;20067;-87
2023/12/07 03:17:31;;;;;;;39.72;17.40;;;;;;;4.95;88.35;94812.03;5105718;28;20024;-87
2023/12/07 03:19:56;;;;;;;37.15;16.77;;;;;;;5.11;88.81;94813.00;5111050;28;20168;-87
2023/12/07 03:22:22;;;;;;;28.80;15.00;;;;;;;5.52;88.34;94872.00;5121401;28;20035;-87
2023/12/07 03:24:50;;;;;;;27.02;13.73;;;;;;;5.22;88.11;94836.50;5121829;28;20028;-87
2023/12/07 03:27:16;;;;;;;27.73;14.10;;;;;;;5.37;88.20;94870.81;5113201;28;20436;-87
2023/12/07 03:29:41;;;;;;;28.20;13.98;;;;;;;4.30;88.14;94713.09;5123691;28;20027;-87
2023/12/07 03:32:07;;;;;;;30.92;15.25;;;;;;;4.92;87.77;94802.00;5111250;28;20027;-87
2023/12/07 03:34:32;;;;;;;27.75;13.57;;;;;;;5.41;88.07;94882.47;5118428;28;20043;-87
2023/12/07 03:36:58;;;;;;;37.15;14.38;;;;;;;3.98;87.44;94650.00;5123123;28;20008;-87
2023/12/07 03:39:25;;;;;;;35.58;16.42;;;;;;;4.86;87.91;94795.91;5104789;28;20486;-88
2023/12/07 03:41:50;;;;;;;29.55;14.73;;;;;;;5.45;88.00;94888.00;5121730;28;20027;-87
2023/12/07 03:44:16;;;;;;;33.10;15.05;;;;;;;4.89;87.70;94781.47;5122540;28;20417;-87
2023/12/07 03:46:41;;;;;;;29.83;14.93;;;;;;;4.27;87.28;94695.22;5121589;28;20049;-87
2023/12/07 03:49:07;;;;;;;30.33;13.05;;;;;;;5.37;87.55;94860.31;5107715;28;20091;-88
2023/12/07 03:51:34;;;;;;;32.67;14.52;;;;;;;5.10;87.81;94806.16;5122448;28;20042;-87
2023/12/07 03:53:59;;;;;;;33.25;15.35;;;;;;;4.25;87.45;94661.34;5116963;28;20027;-87
2023/12/07 03:56:29;;;;;;;29.33;14.68;;;;;;;4.26;86.73;94655.06;5123326;28;20091;-85
2023/12/07 03:58:55;;;;;;;32.53;14.88;;;;;;;3.29;86.59;94513.34;5112618;28;20031;-85
2023/12/07 04:01:29;;;;;;;32.70;14.48;;;;;;;5.63;87.26;94871.06;5111602;28;20046;-87
2023/12/07 04:03:56;;;;;;;27.02;14.65;;;;;;;2.67;86.47;94424.56;5100787;28;20528;-87
2023/12/07 04:06:23;;;;;;;35.83;15.57;;;;;;;5.15;86.45;94801.72;5115203;28;20089;-87
2023/12/07 04:08:48;;;;;;;32.13;14.82;;;;;;;3.78;86.72;94587.59;5103749;28;20180;-87
2023/12/07 04:11:14;;;;;;;29.48;15.30;;;;;;;4.87;87.27;94750.22;5099889;28;20094;-87
2023/12/07 04:13:41;;;;;;;28.15;14.13;;;;;;;4.39;86.69;94668.81;5100918;28;20035;-87
2023/12/07 04:16:07;;;;;;;29.05;14.30;;;;;;;4.27;86.93;94656.59;5099516;28;20051;-87
2023/12/07 04:18:32;;;;;;;26.92;14.38;;;;;;;4.51;86.03;94720.16;5116736;28;20046;-87
2023/12/07 04:20:58;;;;;;;27.50;13.93;;;;;;;4.81;86.64;94758.28;5117517;28;20071;-87
2023/12/07 04:23:23;;;;;;;30.60;13.90;;;;;;;5.09;86.04;94802.72;5116217;28;20047;-87
2023/12/07 04:25:49;;;;;;;34.92;16.65;;;;;;;3.79;86.45;94598.91;5102997;28;20059;-87
2023/12/07 04:28:15;;;;;;;35.92;17.33;;;;;;;5.27;86.03;94833.13;5119827;28;20061;-86
2023/12/07 04:30:40;;;;;;;31.42;16.63;;;;;;;5.53;86.26;94865.72;5110935;28;20027;-87
2023/12/07 04:33:06;;;;;;;39.08;17.73;;;;;;;5.52;86.79;94870.19;5129176;28;20516;-87
2023/12/07 04:35:31;;;;;;;48.50;20.55;;;;;;;4.96;87.20;94803.88;5112758;28;20040;-87
2023/12/07 04:37:57;;;;;;;43.40;20.20;;;;;;;3.26;87.27;94552.38;5118303;28;20035;-87
2023/12/07 04:40:24;;;;;;;38.50;18.30;;;;;;;4.88;87.43;94804.31;5100961;28;20047;-86
2023/12/07 04:42:50;;;;;;;39.08;19.50;;;;;;;5.00;87.28;94828.66;5129238;28;20035;-86
2023/12/07 04:45:16;;;;;;;36.65;18.58;;;;;;;4.76;86.96;94789.75;5130053;28;20077;-86
2023/12/07 04:47:41;;;;;;;43.38;19.45;;;;;;;5.54;87.25;94906.75;5130321;28;20027;-86
2023/12/07 04:50:07;;;;;;;42.83;19.30;;;;;;;4.54;87.18;94743.28;5130795;28;20043;-87
2023/12/07 04:52:33;;;;;;;44.97;20.88;;;;;;;5.56;87.43;94894.16;5110712;28;20042;-86
2023/12/07 04:54:59;;;;;;;41.35;20.75;;;;;;;4.78;87.16;94769.28;5131012;28;20035;-86
2023/12/07 04:57:25;;;;;;;42.78;19.20;;;;;;;4.71;87.11;94766.88;5112616;28;20040;-86
2023/12/07 04:59:52;;;;;;;42.10;20.25;;;;;;;4.32;87.17;94708.41;5126894;28;20031;-86
2023/12/07 05:02:17;;;;;;;40.33;19.17;;;;;;;4.92;87.26;94799.38;5129269;28;20039;-87
2023/12/07 05:04:45;;;;;;;35.05;17.98;;;;;;;3.07;86.95;94521.19;5113547;28;20118;-87
2023/12/07 05:07:11;;;;;;;38.65;18.45;;;;;;;5.55;87.44;94918.88;5100614;28;20036;-86
2023/12/07 05:09:38;;;;;;;38.10;20.35;;;;;;;3.78;87.28;94637.44;5101647;28;20027;-87
2023/12/07 05:12:04;;;;;;;40.35;18.88;;;;;;;4.78;88.39;94804.25;5103000;28;20038;-87
2023/12/07 05:14:34;;;;;;;36.05;18.55;;;;;;;5.41;87.38;94900.88;5128912;27;20050;-87
2023/12/07 05:17:01;;;;;;;30.75;16.85;;;;;;;1.61;87.01;94304.59;5109296;28;20041;-87
2023/12/07 05:19:27;;;;;;;34.60;17.00;;;;;;;1.94;86.99;94373.34;5103335;28;20117;-87
2023/12/07 05:21:52;;;;;;;31.67;16.73;;;;;;;3.04;87.40;94558.38;5105454;28;20078;-87
2023/12/07 05:24:18;;;;;;;30.30;16.70;;;;;;;4.70;87.67;94823.06;5104521;28;20031;-88
2023/12/07 05:26:48;;;;;;;37.47;17.58;;;;;;;4.79;88.21;94903.03;5105116;28;20032;-89
2023/12/07 05:29:15;;;;;;;39.35;19.23;;;;;;;1.45;88.19;94340.16;5106423;28;20503;-87
2023/12/07 05:31:40;;;;;;;38.58;18.45;;;;;;;0.55;88.18;94231.31;5087676;28;20050;-89
2023/12/07 05:34:07;;;;;;;31.20;16.30;;;;;;;4.86;89.01;94916.00;5091796;28;20047;-89
2023/12/07 05:36:33;;;;;;;37.53;16.63;;;;;;;3.95;90.20;94800.03;5097328;28;20027;-89
2023/12/07 05:38:58;;;;;;;35.92;17.02;;;;;;;4.74;89.96;94905.59;5089315;28;20047;-89
2023/12/07 05:41:25;;;;;;;34.83;17.02;;;;;;;4.05;89.58;94808.03;5098805;28;20812;-90
2023/12/07 05:43:52;;;;;;;38.38;19.27;;;;;;;3.04;89.81;94665.78;5095055;28;20035;-89
2023/12/07 05:46:18;;;;;;;41.08;19.23;;;;;;;1.84;89.86;94479.56;5100798;28;20114;-89
2023/12/07 05:48:44;;;;;;;36.25;19.27;;;;;;;0.46;90.06;94264.03;5100580;28;20043;-89
2023/12/07 05:51:14;;;;;;;44.47;19.50;;;;;;;1.63;90.44;94420.94;5100698;28;20034;-89
2023/12/07 05:53:40;;;;;;;47.53;21.95;;;;;;;4.25;89.92;94839.03;5097878;28;20156;-89
2023/12/07 05:56:06;;;;;;;46.78;21.85;;;;;;;2.98;89.68;94650.19;5103269;28;20019;-90
2023/12/07 05:58:32;;;;;;;41.67;21.83;;;;;;;2.26;90.02;94521.88;5101246;28;20032;-90
2023/12/07 06:00:58;;;;;;;48.22;21.95;;;;;;;2.51;89.94;94548.44;5116225;28;20027;-90
2023/12/07 06:03:25;;;;;;;49.00;20.00;;;;;;;3.25;89.75;94700.94;5096615;28;20073;-90
2023/12/07 06:05:51;;;;;;;43.53;21.23;;;;;;;3.94;90.76;94813.41;5099435;28;20031;-90
2023/12/07 06:08:17;;;;;;;46.90;21.80;;;;;;;4.93;90.69;94946.31;5098114;28;20051;-90
2023/12/07 06:11:52;;;;;;;48.17;22.27;;;;;;;0.53;90.30;94280.38;5107120;28;20032;-90
2023/12/07 06:14:17;;;;;;;49.75;23.17;;;;;;;1.85;90.45;94471.50;5022103;28;20056;-87
2023/12/07 06:16:43;;;;;;;41.58;20.95;;;;;;;2.59;90.49;94573.44;5100489;28;20146;-89
2023/12/07 06:19:09;;;;;;;45.00;22.17;;;;;;;3.20;89.55;94671.25;5095458;28;20206;-89
2023/12/07 06:21:35;;;;;;;38.72;19.58;;;;;;;4.27;89.23;94821.22;5105910;28;20087;-89
2023/12/07 06:24:00;;;;;;;41.95;20.25;;;;;;;3.21;89.62;94691.97;5095148;28;20027;-90
2023/12/07 06:26:29;;;;;;;39.00;19.58;;;;;;;3.68;89.62;94751.91;5094626;28;20058;-89
2023/12/07 06:28:54;;;;;;;40.03;18.08;;;;;;;3.58;90.02;94715.06;5091965;28;20128;-88
2023/12/07 06:31:21;;;;;;;41.67;18.58;;;;;;;1.80;88.97;94470.63;5113201;28;20059;-88
2023/12/07 06:33:47;;;;;;;41.03;19.65;;;;;;;5.16;89.03;94952.38;5099301;28;20108;-88
2023/12/07 06:36:21;;;;;;;37.00;17.50;;;;;;;4.77;89.59;94889.34;5103433;28;20035;-89
2023/12/07 06:38:47;;;;;;;41.55;18.98;;;;;;;4.50;89.11;94846.47;5093094;28;20038;-88
2023/12/07 06:41:13;;;;;;;35.58;18.15;;;;;;;2.90;89.09;94601.63;5105626;28;20032;-89
2023/12/07 06:43:38;;;;;;;43.70;18.67;;;;;;;0.81;88.59;94283.97;5104952;28;20032;-88
2023/12/07 06:46:07;;;;;;;36.10;16.98;;;;;;;1.33;88.65;94350.69;5108563;28;20088;-89
2023/12/07 06:48:33;;;;;;;31.23;15.23;;;;;;;3.81;88.26;94741.09;5101701;28;20073;-90
2023/12/07 06:50:59;;;;;;;36.22;17.20;;;;;;;5.20;88.18;94937.69;5096964;28;20032;-90
2023/12/07 06:53:25;;;;;;;32.92;14.27;;;;;;;3.09;88.73;94631.78;5094036;28;20139;-90
2023/12/07 06:55:50;;;;;;;32.65;15.05;;;;;;;5.23;88.41;94997.66;5093705;28;20110;-90
2023/12/07 06:58:16;;;;;;;26.75;13.27;;;;;;;2.12;89.07;94494.44;5110537;28;20043;-90
2023/12/07 07:00:41;;;;;;;31.33;15.45;;;;;;;5.25;88.15;94998.22;5097699;28;20295;-90
2023/12/07 07:03:07;;;;;;;32.30;14.43;;;;;;;4.54;87.96;94876.44;5091175;28;20565;-90
2023/12/07 07:05:32;;;;;;;37.97;15.57;;;;;;;3.96;88.35;94754.41;5100709;28;20115;-91
2023/12/07 07:08:01;;;;;;;29.25;13.55;;;;;;;2.52;87.82;94549.22;5096914;28;20148;-91
2023/12/07 07:10:26;;;;;;;34.00;14.60;;;;;;;4.48;88.17;94846.69;5091178;28;20068;-89
2023/12/07 07:12:52;;;;;;;34.17;16.85;;;;;;;0.62;88.58;94233.78;5108075;22;20909;-87
2023/12/07 07:15:20;;;;;;;27.73;14.45;;;;;;;3.82;88.34;94767.06;5100341;28;20039;-87
2023/12/07 07:17:46;;;;;;;30.83;15.23;;;;;;;3.40;88.23;94688.06;5090887;28;20043;-86
2023/12/07 07:20:11;;;;;;;28.85;15.27;;;;;;;3.24;88.73;94701.19;5089384;28;20037;-88
2023/12/07 07:22:53;;;;;;;24.95;13.93;;;;;;;1.79;88.00;94458.59;5075396;28;20066;-85
2023/12/07 07:25:19;;;;;;;27.25;13.80;;;;;;;1.20;88.54;94366.66;5098550;28;20039;-87
2023/12/07 07:27:48;;;;;;;29.58;14.15;;;;;;;5.18;88.65;95001.03;5083710;28;20331;-86
2023/12/07 07:30:14;;;;;;;30.77;15.15;;;;;;;5.07;89.28;94980.91;5092446;28;20055;-86
2023/12/07 07:32:40;;;;;;;34.38;16.20;;;;;;;3.35;89.31;94729.94;5092363;28;20032;-86
2023/12/07 07:35:05;;;;;;;34.95;17.20;;;;;;;4.94;89.72;94968.94;5085011;22;20670;-79
2023/12/07 07:37:31;;;;;;;37.70;17.38;;;;;;;4.83;90.22;94974.28;5070222;28;20028;-78
2023/12/07 07:39:56;;;;;;;35.13;17.63;;;;;;;4.65;91.34;94949.84;5054212;28;20794;-77
2023/12/07 07:42:22;;;;;;;28.42;15.95;;;;;;;4.36;90.56;94921.34;5080174;28;20038;-77
2023/12/07 07:44:47;;;;;;;33.00;15.88;;;;;;;4.85;90.74;94993.22;5055144;28;20043;-77
2023/12/07 07:47:13;;;;;;;29.60;15.02;;;;;;;4.82;90.54;94994.50;5069633;28;20601;-78
2023/12/07 07:49:39;;;;;;;35.53;15.63;;;;;;;4.28;90.35;94925.97;5086083;28;20095;-78
2023/12/07 07:52:05;;;;;;;34.22;15.15;;;;;;;4.62;91.25;95013.41;5067212;28;20138;-80
2023/12/07 07:54:30;;;;;;;33.10;17.23;;;;;;;4.44;91.80;94994.44;5051785;28;20127;-80
2023/12/07 07:56:56;;;;;;;29.38;15.00;;;;;;;4.43;91.79;95004.16;5066623;28;20119;-79
2023/12/07 07:59:22;;;;;;;28.13;15.25;;;;;;;4.31;93.03;94982.44;5066104;28;20051;-78
2023/12/07 08:01:48;;;;;;;31.05;16.95;;;;;;;4.54;92.55;95008.53;5084613;28;20259;-78
2023/12/07 08:04:13;;;;;;;31.65;16.67;;;;;;;4.57;92.73;95017.78;5074945;28;20085;-78
2023/12/07 08:06:39;;;;;;;26.73;14.25;;;;;;;4.49;92.01;95005.06;5067593;28;20032;-79
2023/12/07 08:09:07;;;;;;;21.80;11.93;;;;;;;4.11;91.86;94975.06;5069931;28;20031;-79
2023/12/07 08:11:33;;;;;;;19.33;10.95;;;;;;;4.22;91.60;95003.03;5048203;28;20151;-80
2023/12/07 08:13:58;;;;;;;21.92;10.40;;;;;;;4.20;91.27;95010.34;5043464;28;20664;-80
2023/12/07 08:16:24;;;;;;;18.77;8.88;;;;;;;4.30;91.08;95035.97;5069402;28;20123;-80
2023/12/07 08:18:50;;;;;;;14.40;8.40;;;;;;;4.06;91.61;95021.38;5051169;28;20028;-79
2023/12/07 08:21:20;;;;;;;21.10;9.55;;;;;;;4.22;91.25;95039.00;5057977;28;20035;-79
2023/12/07 08:23:46;;;;;;;17.25;9.48;;;;;;;4.17;91.41;95038.91;5058047;28;20035;-78
2023/12/07 08:26:14;;;;;;;22.58;8.65;;;;;;;3.89;91.58;95005.63;5066650;28;20024;-78
2023/12/07 08:28:39;;;;;;;18.42;9.52;;;;;;;4.09;91.69;95037.47;5065528;28;20086;-78
2023/12/07 08:31:06;;;;;;;22.40;10.38;;;;;;;3.76;91.62;94982.31;5065076;28;20040;-78
2023/12/07 08:33:34;;;;;;;20.02;10.20;;;;;;;3.93;91.61;95005.94;5062179;28;20032;-79
2023/12/07 08:36:00;;;;;;;13.68;9.10;;;;;;;4.07;91.16;95041.34;5110352;27;20036;-80
2023/12/07 08:38:25;;;;;;;16.67;8.98;;;;;;;3.71;90.95;94980.41;5119060;27;20055;-79
2023/12/07 08:40:51;;;;;;;17.13;8.85;;;;;;;3.47;90.97;94953.47;5102099;28;20035;-79
2023/12/07 08:43:24;;;;;;;15.85;6.88;;;;;;;3.53;89.94;94974.53;5102207;27;20046;-79
2023/12/07 08:45:51;;;;;;;14.40;6.80;;;;;;;3.95;89.44;95059.00;5093499;28;20095;-79
2023/12/07 08:48:19;;;;;;;12.88;7.13;;;;;;;3.89;89.94;95031.88;5088184;28;20047;-78
2023/12/07 08:50:44;;;;;;;9.52;6.28;;;;;;;3.54;89.98;95000.53;5099563;27;20031;-79
2023/12/07 08:53:10;;;;;;;12.48;6.60;;;;;;;3.86;89.83;95055.94;5089027;28;20374;-78
2023/12/07 08:55:35;;;;;;;17.77;6.78;;;;;;;3.61;90.28;95026.59;5087226;28;20100;-77
2023/12/07 08:58:03;;;;;;;17.08;6.32;;;;;;;3.66;89.59;95026.72;5105641;28;20020;-79
2023/12/07 09:00:30;;;;;;;10.68;6.10;;;;;;;3.95;89.48;95062.41;5101879;28;20038;-80
2023/12/07 09:02:55;;;;;;;14.27;6.22;;;;;;;3.58;89.60;94979.88;5107138;27;20536;-80
2023/12/07 09:05:21;;;;;;;20.55;5.65;;;;;;;3.63;88.64;95032.41;5074742;28;20114;-80
2023/12/07 09:07:48;;;;;;;10.20;6.18;;;;;;;3.72;89.10;95046.75;5076824;28;20070;-79
2023/12/07 09:10:13;;;;;;;10.93;5.55;;;;;;;3.62;89.02;95047.34;5086246;28;20531;-80
2023/12/07 09:12:39;;;;;;;8.15;4.75;;;;;;;3.72;89.22;95060.69;5075125;28;20054;-77
2023/12/07 09:15:07;;;;;;;10.10;5.13;;;;;;;3.27;89.54;94989.00;5074590;28;20028;-79
2023/12/07 09:17:32;;;;;;;8.23;4.93;;;;;;;3.61;89.62;95058.88;5075388;28;20585;-79
2023/12/07 09:19:58;;;;;;;9.18;5.18;;;;;;;3.54;89.91;95026.75;5070982;28;20031;-79
2023/12/07 09:22:25;;;;;;;8.68;5.15;;;;;;;3.27;90.34;94968.84;5105418;28;20061;-80
2023/12/07 09:24:50;;;;;;;11.43;5.30;;;;;;;3.52;89.30;95022.75;5097521;28;20047;-80
2023/12/07 09:27:16;;;;;;;8.40;5.65;;;;;;;3.46;90.14;95029.72;5098074;28;20050;-79
2023/12/07 09:29:41;;;;;;;9.00;5.43;;;;;;;3.33;90.81;95022.94;5091153;28;20046;-80
2023/12/07 09:32:07;;;;;;;6.47;3.90;;;;;;;3.52;89.99;95062.88;5106710;28;20092;-79
2023/12/07 09:34:33;;;;;;;9.43;6.00;;;;;;;3.02;90.66;94997.13;5090750;28;20089;-78
2023/12/07 09:37:09;;;;;;;7.03;4.47;;;;;;;3.07;90.20;95032.09;5086277;28;20043;-78
2023/12/07 09:39:34;;;;;;;10.15;5.07;;;;;;;3.33;90.84;95054.38;5104176;28;20099;-77
2023/12/07 09:42:00;;;;;;;8.40;4.63;;;;;;;2.57;91.99;94958.47;5088138;27;20104;-79
2023/12/07 09:44:26;;;;;;;13.13;4.55;;;;;;;3.13;91.61;95040.06;5089628;28;20031;-80
2023/12/07 09:46:52;;;;;;;6.10;4.00;;;;;;;3.12;91.34;95054.19;5104936;28;20080;-79
2023/12/07 09:49:18;;;;;;;6.68;4.28;;;;;;;3.26;92.52;95047.69;5110252;28;20031;-78
2023/12/07 09:51:44;;;;;;;8.82;4.72;;;;;;;3.00;91.21;95031.41;5088836;28;20038;-79
2023/12/07 09:56:40;;;;;;;7.15;4.35;;;;;;;2.30;91.34;94949.47;5064924;28;20056;-87
2023/12/07 09:59:06;;;;;;;6.43;3.95;;;;;;;1.98;91.83;94896.72;5084670;28;20270;-87
2023/12/07 10:01:34;;;;;;;9.93;5.13;;;;;;;2.02;91.40;94902.25;5065052;28;20302;-85
2023/12/07 10:04:20;;;;;;;10.98;3.90;;;;;;;2.99;92.09;95057.84;5059953;28;20028;-85
2023/12/07 10:06:47;;;;;;;7.45;4.60;;;;;;;2.86;93.01;95040.53;5058077;28;20045;-86
2023/12/07 10:09:13;;;;;;;9.10;4.35;;;;;;;2.58;92.96;94974.97;5066052;28;20104;-84
2023/12/07 10:11:40;;;;;;;6.55;3.95;;;;;;;2.81;92.19;95044.88;5071310;28;20028;-85
2023/12/07 10:14:08;;;;;;;6.22;3.25;;;;;;;2.00;91.65;94928.63;5063443;28;20059;-85
2023/12/07 10:16:35;;;;;;;5.50;3.85;;;;;;;2.89;91.62;95063.66;5075774;28;20410;-87
2023/12/07 10:19:17;;;;;;;5.72;3.88;;;;;;;0.77;91.62;94738.59;5074185;28;20082;-87
2023/12/07 10:21:44;;;;;;;7.90;4.55;;;;;;;2.64;91.45;95058.66;5065751;28;20064;-85
2023/12/07 10:24:10;;;;;;;6.28;3.92;;;;;;;2.57;90.81;95041.44;5059688;28;20066;-86
2023/12/07 10:26:38;;;;;;;4.88;3.25;;;;;;;2.62;91.05;95073.78;5066875;28;20063;-84
2023/12/07 10:29:08;;;;;;;7.15;3.60;;;;;;;2.58;92.08;95056.94;5058690;28;20059;-85
2023/12/07 10:31:34;;;;;;;8.02;3.65;;;;;;;1.84;93.00;94930.09;5051984;28;20041;-86
2023/12/07 10:34:00;;;;;;;7.07;2.90;;;;;;;0.28;92.23;94710.97;5067006;28;20094;-87
2023/12/07 10:36:27;;;;;;;4.70;3.00;;;;;;;1.78;92.37;94938.03;5070213;28;20044;-87
2023/12/07 10:38:53;;;;;;;3.03;2.17;;;;;;;0.52;92.36;94740.56;5080370;28;20039;-87
2023/12/07 10:41:20;;;;;;;6.38;2.65;;;;;;;2.39;92.16;95038.91;5076184;28;20140;-86
2023/12/07 10:43:51;;;;;;;4.55;3.10;;;;;;;0.76;93.11;94801.47;5079399;28;20056;-86
2023/12/07 10:46:20;;;;;;;3.35;2.42;;;;;;;2.04;93.55;95010.09;5062702;28;20132;-86
2023/12/07 10:48:50;;;;;;;6.60;3.38;;;;;;;-1.60;93.75;94433.38;5083163;28;20089;-87
2023/12/07 10:51:30;;;;;;;10.68;3.33;;;;;;;1.61;94.76;94916.19;5074592;28;20054;-88
2023/12/07 10:53:58;;;;;;;6.93;3.85;;;;;;;2.45;95.51;95053.72;5061366;28;20494;-85
2023/12/07 10:56:42;;;;;;;8.68;3.42;;;;;;;1.26;94.71;94861.22;5066625;28;20044;-86
2023/12/07 10:59:12;;;;;;;6.28;3.90;;;;;;;2.60;94.73;95054.06;5088151;28;20097;-86
2023/12/07 11:02:13;;;;;;;7.20;4.00;;;;;;;1.75;93.05;94962.84;5114976;22;20064;-86
2023/12/07 11:04:41;;;;;;;9.55;6.05;;;;;;;1.69;93.46;94976.78;5032124;28;20119;-83
2023/12/07 11:07:20;;;;;;;11.32;6.75;;;;;;;1.12;95.14;94871.88;5078932;28;20067;-83
2023/12/07 11:09:53;;;;;;;10.05;7.43;;;;;;;1.47;94.40;94952.97;5090497;22;20032;-82
2023/12/07 11:12:36;;;;;;;7.05;4.60;;;;;;;2.06;94.45;95057.75;5091215;28;20024;-83
2023/12/07 11:15:03;;;;;;;8.23;4.97;;;;;;;1.75;95.59;94993.41;5075876;28;20569;-83
2023/12/07 11:17:30;;;;;;;6.47;4.32;;;;;;;1.69;95.33;94999.50;5114485;22;20040;-78
2023/12/07 11:19:56;;;;;;;6.55;3.92;;;;;;;1.45;95.54;94975.91;5100101;27;20091;-79
2023/12/07 11:22:23;;;;;;;5.35;3.83;;;;;;;1.91;95.87;95063.38;5097338;27;20032;-79
2023/12/07 11:25:00;;;;;;;7.60;4.47;;;;;;;1.91;95.67;95052.91;5089453;27;20027;-79
2023/12/07 11:27:31;;;;;;;6.55;3.97;;;;;;;1.50;97.18;94989.13;5094771;27;20039;-79
2023/12/07 11:30:00;;;;;;;7.20;4.38;;;;;;;2.02;96.00;95062.63;5106881;27;20088;-79
2023/12/07 11:32:27;;;;;;;14.52;4.45;;;;;;;2.01;96.08;95065.44;5068442;27;20031;-80
2023/12/07 11:34:53;;;;;;;11.48;5.18;;;;;;;2.03;96.61;95063.41;5093406;27;20118;-80